Time;durP1;ratioP1;P1;durP2;ratioP2;P2;SDS_P1;SDS_P2;PMS_P1;PMS_P2;Temp;Humidity;BMP_temperature;BMP_pressure;BME280_temperature;BME280_humidity;BME280_pressure;Samples;Min_cycle;Max_cycle;Signal;HPM_P1;HPM_P2
2023/03/22 00:01:21;;;;;;;57.60;41.30;;;;;;;10.54;68.82;98983.11;223660;181;139674;-72
2023/03/22 00:06:25;;;;;;;60.90;40.10;;;;;;;10.45;68.85;98978.70;223572;181;137729;-73
2023/03/22 00:11:29;;;;;;;57.10;40.10;;;;;;;10.38;68.99;98975.00;223671;181;147434;-72
2023/03/22 00:16:32;;;;;;;65.60;44.90;;;;;;;10.32;69.13;98970.60;223652;182;138263;-72
2023/03/22 00:21:36;;;;;;;50.80;36.70;;;;;;;10.28;69.16;98971.75;223671;181;136685;-73
2023/03/22 00:26:40;;;;;;;54.60;39.10;;;;;;;10.23;69.18;98966.02;223636;182;146928;-72
2023/03/22 00:31:43;;;;;;;58.80;40.40;;;;;;;10.21;69.28;98962.97;223711;181;138789;-72
2023/03/22 00:36:47;;;;;;;60.20;41.20;;;;;;;10.20;69.23;98958.39;223757;181;137359;-72
2023/03/22 00:41:50;;;;;;;63.60;43.70;;;;;;;10.20;69.24;98959.84;223624;181;149050;-72
2023/03/22 00:46:54;;;;;;;61.50;42.40;;;;;;;10.18;69.38;98948.05;223720;182;139302;-72
2023/03/22 00:51:57;;;;;;;60.10;42.80;;;;;;;10.13;69.38;98949.44;223615;181;137485;-73
2023/03/22 00:57:05;;;;;;;56.20;41.70;;;;;;;10.01;69.51;98945.54;223757;181;149598;-73
2023/03/22 01:02:13;;;;;;;60.20;41.80;;;;;;;9.96;69.61;98936.29;223699;181;138299;-73
2023/03/22 01:07:20;;;;;;;57.80;39.90;;;;;;;9.83;69.61;98937.60;223745;181;137019;-73
2023/03/22 01:12:24;;;;;;;58.80;39.00;;;;;;;9.75;70.02;98940.08;223662;182;147985;-72
2023/03/22 01:17:27;;;;;;;59.30;40.70;;;;;;;9.78;70.07;98937.94;223720;181;139419;-72
2023/03/22 01:22:30;;;;;;;57.80;40.80;;;;;;;9.80;70.12;98928.43;223686;182;136508;-72
2023/03/22 01:27:34;;;;;;;61.00;41.30;;;;;;;9.79;70.22;98926.38;223670;182;147466;-72
2023/03/22 01:32:38;;;;;;;58.30;42.30;;;;;;;9.85;70.17;98925.78;223669;181;138704;-72
2023/03/22 01:37:42;;;;;;;56.70;40.90;;;;;;;9.83;70.22;98920.46;223644;181;137401;-72
2023/03/22 01:42:46;;;;;;;57.60;39.60;;;;;;;9.77;70.24;98911.43;223782;182;147781;-72
2023/03/22 01:47:58;;;;;;;57.40;41.10;;;;;;;9.69;70.32;98910.09;223553;182;138487;-72
2023/03/22 01:53:03;;;;;;;54.00;38.70;;;;;;;9.66;70.37;98897.20;223700;181;137547;-72
2023/03/22 01:58:09;;;;;;;51.90;36.60;;;;;;;9.67;70.27;98890.05;223703;181;146907;-72
2023/03/22 02:03:54;;;;;;;57.00;38.50;;;;;;;9.65;70.10;98887.70;222060;177;139498;-72
2023/03/22 02:08:58;;;;;;;62.50;39.20;;;;;;;9.64;69.77;98876.92;221237;181;138646;-73
2023/03/22 02:14:28;;;;;;;60.70;40.30;;;;;;;9.58;69.70;98867.02;223726;182;147939;-73
2023/03/22 02:20:24;;;;;;;54.50;38.50;;;;;;;9.55;70.00;98863.69;223662;181;139144;-73
2023/03/22 02:25:31;;;;;;;54.80;38.80;;;;;;;9.49;70.04;98869.86;223793;182;137319;-73
2023/03/22 02:30:46;;;;;;;57.80;40.20;;;;;;;9.42;70.16;98863.38;223684;181;148169;-72
2023/03/22 02:36:11;;;;;;;55.10;39.40;;;;;;;9.33;70.00;98860.04;223616;182;139172;-71
2023/03/22 02:42:01;;;;;;;55.50;38.00;;;;;;;9.25;70.07;98849.92;223731;181;137635;-71
2023/03/22 02:47:15;;;;;;;54.30;38.00;;;;;;;9.15;69.87;98848.90;223693;181;147351;-71
2023/03/22 02:52:28;;;;;;;53.30;37.40;;;;;;;9.13;69.96;98848.85;221795;182;138943;-73
2023/03/22 02:57:44;;;;;;;54.90;38.10;;;;;;;9.12;69.49;98848.72;223423;182;136837;-73
2023/03/22 03:02:56;;;;;;;52.40;36.70;;;;;;;9.05;69.33;98845.80;223669;181;147524;-73
2023/03/22 03:08:01;;;;;;;54.20;38.30;;;;;;;8.95;69.33;98848.68;223720;181;139391;-73
2023/03/22 03:13:05;;;;;;;;;;;;;;;8.86;69.28;98846.17;223096;182;137283;-73
2023/03/22 03:18:25;;;;;;;50.50;34.30;;;;;;;8.75;69.30;98851.80;223548;181;147676;-70
2023/03/22 03:23:48;;;;;;;50.50;33.00;;;;;;;8.64;69.22;98858.25;223596;181;138281;-73
2023/03/22 03:28:56;;;;;;;46.10;32.40;;;;;;;8.49;69.24;98865.30;223683;181;137293;-73
2023/03/22 03:34:22;;;;;;;44.10;31.60;;;;;;;8.38;69.85;98863.59;223768;182;147163;-73
2023/03/22 03:39:29;;;;;;;50.70;31.40;;;;;;;8.32;70.20;98869.39;223741;181;139460;-73
2023/03/22 03:44:35;;;;;;;57.60;35.70;;;;;;;8.29;70.62;98868.66;223658;181;141114;-71
2023/03/22 03:49:39;;;;;;;97.20;39.20;;;;;;;8.32;71.06;98869.39;223683;181;147658;-71
2023/03/22 03:54:44;;;;;;;74.20;39.80;;;;;;;8.34;71.31;98866.25;223698;181;138718;-73
2023/03/22 03:59:50;;;;;;;74.60;40.90;;;;;;;8.37;71.81;98865.94;223773;182;136820;-73
2023/03/22 04:05:06;;;;;;;78.00;41.00;;;;;;;8.37;71.96;98877.25;223723;181;147492;-73
2023/03/22 04:10:09;;;;;;;99.10;42.70;;;;;;;8.36;72.18;98879.61;222276;178;139917;-73
2023/03/22 04:15:12;;;;;;;68.80;42.30;;;;;;;8.33;72.40;98881.53;223713;181;137945;-72
2023/03/22 04:20:18;;;;;;;58.60;38.10;;;;;;;8.31;72.54;98879.85;223689;181;148131;-73
2023/03/22 04:25:22;;;;;;;67.50;37.40;;;;;;;8.35;72.32;98874.73;222942;181;138290;-73
2023/03/22 04:30:44;;;;;;;62.40;38.20;;;;;;;8.38;72.16;98875.44;223805;182;138073;-80
2023/03/22 04:36:10;;;;;;;66.30;39.40;;;;;;;8.37;72.23;98876.39;223703;181;147385;-74
2023/03/22 04:41:24;;;;;;;200.80;110.70;;;;;;;8.38;72.43;98880.02;223689;181;138292;-74
2023/03/22 04:46:33;;;;;;;105.20;51.60;;;;;;;8.39;72.24;98888.63;223707;182;137845;-73
2023/03/22 04:51:38;;;;;;;122.40;53.20;;;;;;;8.37;72.27;98887.15;223657;181;148521;-74
2023/03/22 04:56:57;;;;;;;47.40;33.80;;;;;;;8.35;71.98;98890.23;223617;181;139124;-75
2023/03/22 05:02:02;;;;;;;56.50;33.80;;;;;;;8.28;71.68;98894.85;223698;182;138519;-75
2023/03/22 05:07:12;;;;;;;51.90;32.90;;;;;;;8.31;71.77;98889.95;223665;182;147206;-73
2023/03/22 05:12:26;;;;;;;49.50;32.90;;;;;;;8.30;71.57;98888.38;223655;181;138587;-73
2023/03/22 05:17:37;;;;;;;51.80;33.10;;;;;;;8.27;71.45;98894.58;223673;181;138459;-74
2023/03/22 05:22:40;;;;;;;49.60;31.90;;;;;;;8.23;71.47;98895.89;223738;181;148259;-73
2023/03/22 05:27:45;;;;;;;52.50;32.90;;;;;;;8.21;71.48;98905.16;223727;181;138326;-74
2023/03/22 05:33:09;;;;;;;62.10;32.90;;;;;;;8.17;71.68;98908.01;223724;181;137064;-75
2023/03/22 05:38:17;;;;;;;49.70;33.30;;;;;;;8.16;71.91;98911.80;223452;181;147544;-72
2023/03/22 05:43:25;;;;;;;47.20;32.10;;;;;;;8.15;72.01;98909.70;223798;182;138834;-73
2023/03/22 05:48:29;;;;;;;48.90;31.70;;;;;;;8.20;72.21;98913.54;223490;182;138035;-73
2023/03/22 05:53:33;;;;;;;111.30;81.00;;;;;;;8.31;72.34;98902.69;223772;181;147100;-73
2023/03/22 05:59:01;;;;;;;57.80;38.40;;;;;;;8.52;72.89;98902.45;223690;183;139958;-73
2023/03/22 06:04:05;;;;;;;50.60;33.70;;;;;;;8.66;72.32;98900.90;223717;182;137170;-73
2023/03/22 06:09:19;;;;;;;63.90;34.30;;;;;;;8.72;72.28;98907.98;223693;182;147519;-72
2023/03/22 06:14:25;;;;;;;52.40;33.00;;;;;;;8.78;72.22;98909.81;223672;181;138310;-72
2023/03/22 06:19:53;;;;;;;48.10;32.60;;;;;;;8.82;72.07;98909.26;223728;182;137425;-72
2023/03/22 06:24:56;;;;;;;46.70;31.90;;;;;;;8.89;72.38;98912.92;223628;181;146814;-72
2023/03/22 06:30:07;;;;;;;47.10;31.80;;;;;;;8.99;72.20;98915.66;223730;182;138635;-72
2023/03/22 06:35:22;;;;;;;50.10;32.60;;;;;;;9.09;71.77;98910.84;223734;182;137880;-73
2023/03/22 06:40:26;;;;;;;93.40;61.70;;;;;;;9.20;72.11;98915.67;223641;182;146835;-71
2023/03/22 06:45:32;;;;;;;57.40;35.10;;;;;;;9.36;71.77;98912.80;223660;182;138994;-73
2023/03/22 06:50:37;;;;;;;56.40;37.50;;;;;;;9.43;71.44;98910.23;223700;182;137120;-73
2023/03/22 06:55:54;;;;;;;66.20;42.20;;;;;;;9.44;71.56;98906.86;223693;182;147565;-72
2023/03/22 07:00:59;;;;;;;67.30;41.90;;;;;;;9.50;71.41;98907.58;223767;181;138653;-73
2023/03/22 07:06:05;;;;;;;74.80;41.50;;;;;;;9.56;71.45;98910.40;223692;183;137549;-74
2023/03/22 07:11:11;;;;;;;78.20;40.70;;;;;;;9.64;71.18;98912.05;223778;182;147055;-75
2023/03/22 07:16:16;;;;;;;78.30;44.40;;;;;;;9.74;71.16;98905.41;223734;182;139005;-74
2023/03/22 07:21:34;;;;;;;82.70;45.00;;;;;;;9.85;71.15;98903.68;223691;182;136849;-75
2023/03/22 07:26:40;;;;;;;73.10;42.30;;;;;;;9.86;71.04;98910.86;222788;181;147064;-80
2023/03/22 07:31:45;;;;;;;73.10;41.90;;;;;;;9.89;70.97;98909.95;223733;181;138639;-73
2023/03/22 07:36:58;;;;;;;71.30;40.70;;;;;;;9.95;71.15;98908.33;223622;182;137156;-73
2023/03/22 07:42:03;;;;;;;88.00;44.60;;;;;;;10.05;71.08;98902.96;223805;181;147159;-72
2023/03/22 07:47:25;;;;;;;117.20;68.60;;;;;;;10.13;71.18;98894.50;223750;181;139277;-74
2023/03/22 07:53:10;;;;;;;75.20;43.60;;;;;;;10.30;70.69;98888.52;223642;181;137966;-73
2023/03/22 07:58:14;;;;;;;81.50;43.90;;;;;;;10.42;70.88;98900.48;223647;181;147239;-73
2023/03/22 08:03:17;;;;;;;81.90;44.20;;;;;;;10.63;70.81;98900.40;223669;182;138888;-75
2023/03/22 08:08:35;;;;;;;84.80;46.30;;;;;;;10.85;70.36;98891.85;223505;182;137760;-75
2023/03/22 08:13:39;;;;;;;84.70;44.70;;;;;;;11.02;69.72;98890.39;223383;181;147075;-72
2023/03/22 08:18:44;;;;;;;76.80;43.40;;;;;;;11.17;68.94;98885.81;223768;181;138845;-72
2023/03/22 08:23:48;;;;;;;80.60;41.30;;;;;;;11.26;68.28;98879.75;223694;181;137962;-72
2023/03/22 08:29:30;;;;;;;80.10;42.30;;;;;;;11.31;67.89;98880.61;223629;181;148123;-72
2023/03/22 08:34:38;;;;;;;313.50;204.40;;;;;;;11.47;67.74;98874.02;223681;181;139104;-64
2023/03/22 08:39:42;;;;;;;54.90;32.80;;;;;;;11.74;67.54;98876.95;223645;182;137627;-72
2023/03/22 08:45:00;;;;;;;55.10;30.70;;;;;;;11.92;66.29;98871.84;223741;182;147621;-72
2023/03/22 08:50:05;;;;;;;52.00;28.70;;;;;;;12.08;65.56;98866.60;223642;182;139368;-72
2023/03/22 08:55:16;;;;;;;47.50;25.40;;;;;;;12.26;64.87;98868.73;223694;181;137717;-72
2023/03/22 09:00:38;;;;;;;35.50;21.70;;;;;;;12.35;63.47;98866.44;223832;181;147753;-72
2023/03/22 09:06:00;;;;;;;35.60;18.80;;;;;;;12.44;62.65;98869.38;223585;181;139763;-71
2023/03/22 09:11:11;;;;;;;28.80;17.90;;;;;;;12.57;61.90;98862.88;223760;182;137779;-72
2023/03/22 09:16:15;;;;;;;23.20;13.90;;;;;;;12.78;61.05;98863.48;223700;182;147109;-72
2023/03/22 09:21:20;;;;;;;20.40;13.30;;;;;;;12.92;60.21;98856.95;223703;182;138646;-72
2023/03/22 09:26:35;;;;;;;21.60;14.50;;;;;;;13.00;59.89;98854.75;223675;181;136912;-73
2023/03/22 09:31:40;;;;;;;20.40;14.30;;;;;;;13.03;60.10;98844.52;223485;181;148032;-74
2023/03/22 09:36:51;;;;;;;18.20;13.50;;;;;;;13.07;59.65;98831.06;223689;182;138870;-73
2023/03/22 09:42:01;;;;;;;17.70;12.90;;;;;;;13.08;59.31;98823.89;223805;181;137709;-74
2023/03/22 09:47:12;;;;;;;14.60;9.90;;;;;;;13.07;58.26;98822.30;223699;181;147421;-73
2023/03/22 09:52:16;;;;;;;16.90;11.30;;;;;;;13.08;57.88;98817.11;223669;182;138730;-72
2023/03/22 09:57:36;;;;;;;21.40;11.70;;;;;;;13.23;58.04;98813.86;223686;181;139069;-73
2023/03/22 10:03:04;;;;;;;13.80;11.30;;;;;;;13.42;58.64;98810.06;223790;181;146990;-73
2023/03/22 10:08:21;;;;;;;20.40;11.80;;;;;;;13.64;58.05;98802.44;223636;181;138631;-72
2023/03/22 10:13:58;;;;;;;15.50;11.50;;;;;;;13.83;57.09;98799.39;223726;181;137577;-72
2023/03/22 10:19:43;;;;;;;16.30;10.80;;;;;;;14.10;56.99;98793.15;223733;181;146948;-72
2023/03/22 10:24:49;;;;;;;16.40;10.90;;;;;;;14.28;55.86;98789.48;223695;182;139631;-72
2023/03/22 10:30:09;;;;;;;14.90;10.40;;;;;;;14.41;55.57;98788.62;223654;181;137171;-72
2023/03/22 10:35:14;;;;;;;14.10;10.50;;;;;;;14.51;54.80;98788.75;223002;181;147372;-72
2023/03/22 10:40:23;;;;;;;15.30;11.30;;;;;;;14.58;54.66;98781.20;223719;182;138862;-73
2023/03/22 10:45:27;;;;;;;16.10;11.70;;;;;;;14.68;55.01;98780.89;223772;181;136927;-73
2023/03/22 10:50:35;;;;;;;19.70;11.90;;;;;;;14.83;55.07;98775.84;223745;181;147173;-73
2023/03/22 10:55:40;;;;;;;37.70;13.00;;;;;;;14.95;55.27;98763.99;223762;181;138732;-72
2023/03/22 11:00:47;;;;;;;24.60;11.90;;;;;;;15.13;55.31;98759.80;223844;182;137175;-73
2023/03/22 11:06:18;;;;;;;17.80;11.20;;;;;;;15.25;54.38;98748.04;223673;181;147423;-72
2023/03/22 11:11:23;;;;;;;15.70;10.20;;;;;;;15.35;54.59;98746.65;223675;182;139248;-73
2023/03/22 11:16:29;;;;;;;12.40;8.60;;;;;;;15.62;53.80;98741.83;223731;181;137826;-73
2023/03/22 11:21:33;;;;;;;14.50;7.70;;;;;;;15.80;52.88;98731.14;223702;182;147073;-73
2023/03/22 11:26:37;;;;;;;8.60;6.60;;;;;;;15.93;51.37;98726.88;223780;182;138587;-73
2023/03/22 11:31:51;;;;;;;11.90;7.20;;;;;;;16.16;50.95;98720.73;223599;181;137683;-73
2023/03/22 11:37:00;;;;;;;11.10;7.00;;;;;;;16.40;49.95;98722.13;223626;181;147504;-73
2023/03/22 11:42:05;;;;;;;11.40;8.10;;;;;;;16.51;49.93;98716.84;223658;181;138492;-73
2023/03/22 11:47:12;;;;;;;14.50;7.90;;;;;;;16.64;49.28;98710.27;223721;182;137034;-73
2023/03/22 11:52:26;;;;;;;129.50;93.70;;;;;;;16.71;48.82;98701.39;223699;181;147705;-73
2023/03/22 11:57:33;;;;;;;16.80;9.40;;;;;;;16.85;49.73;98700.63;223650;181;138963;-74
2023/03/22 12:02:47;;;;;;;16.90;8.40;;;;;;;16.96;48.44;98695.14;223608;182;137577;-73
2023/03/22 12:08:01;;;;;;;15.20;8.20;;;;;;;17.01;47.73;98694.25;223590;182;147108;-73
2023/03/22 12:13:14;;;;;;;14.20;8.90;;;;;;;17.20;47.56;98687.52;223529;181;150601;-73
2023/03/22 12:18:26;;;;;;;15.80;8.20;;;;;;;17.44;47.44;98681.74;223614;182;137555;-72
2023/03/22 12:23:34;;;;;;;12.40;8.70;;;;;;;17.61;47.39;98674.91;223817;183;148217;-72
2023/03/22 12:28:48;;;;;;;12.90;8.20;;;;;;;17.76;46.98;98671.36;223648;181;138563;-72
2023/03/22 12:33:55;;;;;;;9.50;7.60;;;;;;;17.92;46.08;98669.19;223642;181;137716;-72
2023/03/22 12:39:01;;;;;;;11.30;7.30;;;;;;;18.08;46.07;98661.14;223610;181;147202;-71
2023/03/22 12:44:17;;;;;;;11.20;6.90;;;;;;;18.33;45.27;98650.48;223619;182;139077;-72
2023/03/22 12:49:31;;;;;;;15.00;7.50;;;;;;;18.39;45.13;98648.02;223717;182;137393;-72
2023/03/22 12:54:36;;;;;;;11.50;7.50;;;;;;;18.66;44.75;98645.88;223606;179;147416;-73
2023/03/22 12:59:44;;;;;;;11.50;7.40;;;;;;;19.02;44.32;98638.59;223533;181;139026;-72
2023/03/22 13:05:03;;;;;;;11.50;6.90;;;;;;;19.35;43.50;98631.40;223649;182;137978;-73
2023/03/22 13:10:28;;;;;;;9.70;6.90;;;;;;;19.34;43.15;98631.51;223652;182;147368;-72
2023/03/22 13:15:37;;;;;;;15.40;6.40;;;;;;;19.25;42.90;98626.70;223600;181;138206;-72
2023/03/22 13:21:10;;;;;;;11.20;6.00;;;;;;;19.24;43.48;98622.27;223679;182;137312;-72
2023/03/22 13:26:15;;;;;;;9.70;6.10;;;;;;;19.17;43.34;98612.90;223737;182;146962;-72
2023/03/22 13:31:36;;;;;;;7.70;5.50;;;;;;;19.51;42.80;98605.04;223697;181;139163;-71
2023/03/22 13:36:48;;;;;;;7.10;4.40;;;;;;;20.02;41.53;98601.39;223641;182;136837;-72
2023/03/22 13:42:07;;;;;;;10.00;4.60;;;;;;;20.32;40.57;98591.43;223529;182;147638;-72
2023/03/22 13:47:45;;;;;;;7.30;5.00;;;;;;;20.56;40.39;98584.08;223638;182;138465;-72
2023/03/22 13:53:21;;;;;;;8.10;3.10;;;;;;;20.96;38.91;98573.86;223615;181;136730;-72
2023/03/22 13:58:35;;;;;;;6.00;3.40;;;;;;;21.04;37.91;98570.50;223715;181;146857;-72
2023/03/22 14:03:41;;;;;;;6.30;3.60;;;;;;;20.87;37.91;98564.82;223642;181;138651;-73
2023/03/22 14:08:48;;;;;;;5.80;3.30;;;;;;;20.58;38.15;98555.39;223552;181;138056;-72
2023/03/22 14:14:14;;;;;;;5.70;3.50;;;;;;;20.19;38.07;98550.23;222796;181;147001;-72
2023/03/22 14:19:22;;;;;;;5.40;4.20;;;;;;;19.76;38.50;98550.56;222114;182;139381;-73
2023/03/22 14:24:28;;;;;;;8.20;3.70;;;;;;;19.35;39.47;98550.27;223657;182;137043;-73
2023/03/22 14:29:45;;;;;;;10.90;3.90;;;;;;;19.06;40.07;98552.95;223660;182;147806;-73
2023/03/22 14:34:55;;;;;;;5.00;4.00;;;;;;;18.85;40.36;98550.64;223578;182;138651;-73
2023/03/22 14:39:59;;;;;;;7.60;4.30;;;;;;;18.69;40.94;98544.39;223659;182;137341;-73
2023/03/22 14:45:06;;;;;;;5.50;3.80;;;;;;;18.62;41.10;98542.50;223595;182;148697;-73
2023/03/22 14:50:14;;;;;;;7.40;3.00;;;;;;;18.56;40.89;98534.88;223696;183;138436;-73
2023/03/22 14:55:23;;;;;;;5.10;2.90;;;;;;;18.43;40.98;98534.27;223730;181;137058;-72
2023/03/22 15:00:28;;;;;;;107.70;76.10;;;;;;;18.23;41.41;98534.67;223723;181;147140;-73
2023/03/22 15:05:35;;;;;;;8.70;5.00;;;;;;;18.23;43.07;98537.42;223632;181;138098;-69
2023/03/22 15:10:39;;;;;;;5.90;3.80;;;;;;;18.25;42.38;98535.28;223682;181;137592;-69
2023/03/22 15:15:44;;;;;;;10.40;5.40;;;;;;;18.24;42.77;98534.30;223590;182;147952;-69
2023/03/22 15:20:50;;;;;;;5.00;3.90;;;;;;;18.26;43.82;98536.77;223548;182;139456;-69
2023/03/22 15:26:00;;;;;;;5.20;3.30;;;;;;;18.24;43.30;98539.27;223621;181;138587;-69
2023/03/22 15:31:02;;;;;;;5.10;3.50;;;;;;;18.24;43.62;98540.23;223640;183;147498;-69
2023/03/22 15:36:06;;;;;;;5.80;4.00;;;;;;;18.23;44.22;98532.61;223672;181;138796;-69
2023/03/22 15:41:26;;;;;;;8.80;4.00;;;;;;;18.24;44.56;98524.91;223636;181;136760;-69
2023/03/22 15:46:45;;;;;;;7.60;4.40;;;;;;;18.27;44.50;98526.58;223679;181;147054;-70
2023/03/22 15:51:47;;;;;;;5.30;3.90;;;;;;;18.26;43.34;98526.16;223706;181;138326;-71
2023/03/22 15:56:50;;;;;;;5.90;4.10;;;;;;;18.18;43.13;98517.89;223728;181;137106;-70
2023/03/22 16:01:57;;;;;;;9.20;6.00;;;;;;;18.20;45.59;98515.62;223586;182;148060;-71
2023/03/22 16:06:59;;;;;;;5.50;3.90;;;;;;;18.25;45.12;98515.49;223671;181;140284;-68
2023/03/22 16:12:02;;;;;;;5.90;4.20;;;;;;;18.28;45.16;98519.01;223771;182;136919;-69
2023/03/22 16:17:05;;;;;;;7.40;4.30;;;;;;;18.33;47.28;98524.58;223599;181;147102;-69
2023/03/22 16:22:13;;;;;;;10.50;4.90;;;;;;;18.39;45.89;98522.16;223655;177;138574;-68
2023/03/22 16:27:18;;;;;;;19.10;8.80;;;;;;;18.40;47.30;98520.52;223663;182;136921;-67
2023/03/22 16:32:26;;;;;;;10.80;6.10;;;;;;;18.46;47.40;98517.49;223689;178;147995;-70
2023/03/22 16:37:29;;;;;;;11.50;5.00;;;;;;;18.50;47.33;98517.92;223612;181;139369;-70
2023/03/22 16:42:31;;;;;;;105.50;62.50;;;;;;;18.49;47.20;98523.98;223645;181;137621;-73
2023/03/22 16:47:33;;;;;;;46.70;30.30;;;;;;;18.26;45.61;98529.91;223686;181;148627;-72
2023/03/22 16:52:36;;;;;;;13.10;5.20;;;;;;;17.97;45.48;98530.02;223681;181;138907;-72
2023/03/22 16:57:38;;;;;;;17.00;5.00;;;;;;;17.69;45.79;98528.80;223577;182;137439;-72
2023/03/22 17:02:41;;;;;;;12.70;5.00;;;;;;;17.43;46.10;98531.41;223631;182;147853;-72
2023/03/22 17:07:45;;;;;;;17.10;5.60;;;;;;;17.22;46.39;98535.80;223725;181;138578;-72
2023/03/22 17:12:48;;;;;;;17.50;7.00;;;;;;;16.99;46.81;98542.70;223678;181;136807;-73
2023/03/22 17:17:50;;;;;;;32.20;7.50;;;;;;;16.81;47.06;98537.06;223576;181;147643;-74
2023/03/22 17:22:54;;;;;;;34.40;7.80;;;;;;;16.67;47.48;98539.98;223621;181;138546;-73
2023/03/22 17:27:59;;;;;;;30.10;7.00;;;;;;;16.52;47.93;98541.02;223562;182;137695;-72
2023/03/22 17:33:03;;;;;;;29.90;7.80;;;;;;;16.32;48.30;98541.81;223631;182;147843;-72
2023/03/22 17:44:29;;;;;;;30.40;8.30;;;;;;;15.90;49.96;98542.04;223740;181;141203;-72
2023/03/22 17:49:32;;;;;;;32.40;8.10;;;;;;;15.75;50.42;98538.02;223723;182;146849;-72
2023/03/22 17:54:34;;;;;;;37.20;8.40;;;;;;;15.63;50.88;98550.00;223667;181;138256;-72
2023/03/22 17:59:37;;;;;;;21.60;6.60;;;;;;;15.48;51.18;98550.95;223661;182;138231;-72
2023/03/22 18:04:42;;;;;;;24.20;7.10;;;;;;;15.25;51.46;98556.41;223687;181;147037;-72
2023/03/22 18:09:44;;;;;;;26.00;7.70;;;;;;;15.13;51.83;98556.47;223632;182;138534;-72
2023/03/22 18:14:46;;;;;;;28.90;7.90;;;;;;;15.07;52.27;98564.44;223693;182;137640;-75
2023/03/22 18:19:48;;;;;;;144.40;91.40;;;;;;;15.01;52.81;98564.85;223663;181;147391;-72
2023/03/22 18:24:52;;;;;;;32.70;11.50;;;;;;;14.93;53.22;98565.33;222316;181;139309;-74
2023/03/22 18:29:55;;;;;;;31.00;7.50;;;;;;;14.84;53.11;98564.45;223237;182;137084;-72
2023/03/22 18:34:57;;;;;;;26.50;8.20;;;;;;;14.78;53.35;98564.10;223347;181;147687;-72
2023/03/22 18:40:00;;;;;;;24.40;7.70;;;;;;;14.73;53.79;98561.76;223685;182;138489;-72
2023/03/22 18:45:08;;;;;;;33.70;7.90;;;;;;;14.64;54.08;98557.32;223669;181;137931;-72
2023/03/22 18:50:12;;;;;;;27.50;7.40;;;;;;;14.53;54.26;98561.17;223577;182;147098;-72
2023/03/22 18:55:15;;;;;;;22.50;8.40;;;;;;;14.45;54.42;98561.95;223612;182;138528;-73
2023/03/22 19:00:19;;;;;;;26.40;7.90;;;;;;;14.38;54.59;98567.56;223604;181;139203;-73
2023/03/22 19:05:21;;;;;;;29.90;8.00;;;;;;;14.29;54.78;98570.05;223424;182;146937;-74
2023/03/22 19:10:24;;;;;;;24.70;7.90;;;;;;;14.21;55.01;98570.98;220783;181;139069;-73
2023/03/22 19:15:26;;;;;;;26.20;7.90;;;;;;;14.11;55.69;98567.89;223711;182;138058;-73
2023/03/22 19:20:28;;;;;;;32.10;7.50;;;;;;;13.99;56.11;98571.42;223720;181;147586;-73
2023/03/22 19:25:31;;;;;;;31.60;8.80;;;;;;;13.90;56.28;98575.02;223740;181;138336;-73
2023/03/22 19:30:35;;;;;;;28.30;8.60;;;;;;;13.84;55.99;98574.77;223667;182;137890;-72
2023/03/22 19:35:47;;;;;;;26.50;7.70;;;;;;;13.80;56.16;98576.02;223645;181;146961;-73
2023/03/22 19:40:50;;;;;;;27.20;9.40;;;;;;;13.77;56.93;98581.09;223609;182;138773;-73
2023/03/22 19:45:53;;;;;;;31.10;8.50;;;;;;;13.68;56.98;98584.28;223721;181;137868;-72
2023/03/22 19:50:55;;;;;;;35.50;9.40;;;;;;;13.58;57.09;98584.41;223714;181;147246;-76
2023/03/22 19:55:58;;;;;;;25.10;9.20;;;;;;;13.46;57.34;98583.92;223672;181;138092;-71
2023/03/22 20:01:08;;;;;;;30.20;9.10;;;;;;;13.37;57.65;98587.70;223742;182;137394;-73
2023/03/22 20:06:11;;;;;;;104.40;56.30;;;;;;;13.30;58.57;98586.30;223659;181;147736;-71
2023/03/22 20:11:14;;;;;;;40.30;14.60;;;;;;;13.29;59.21;98587.98;223638;182;138037;-71
2023/03/22 20:16:17;;;;;;;42.50;10.50;;;;;;;13.29;58.95;98588.91;223554;181;137647;-71
2023/03/22 20:21:20;;;;;;;34.50;9.30;;;;;;;13.18;59.04;98586.52;223635;178;147989;-72
2023/03/22 20:26:23;;;;;;;46.10;12.10;;;;;;;13.11;59.19;98586.04;223600;181;138893;-75
2023/03/22 20:31:26;;;;;;;38.80;11.10;;;;;;;13.06;59.37;98584.50;223658;181;137826;-71
2023/03/22 20:36:31;;;;;;;33.50;10.60;;;;;;;13.03;59.45;98584.46;223636;182;147525;-71
2023/03/22 20:41:33;;;;;;;29.50;11.40;;;;;;;13.09;59.39;98585.63;223688;182;138384;-72
2023/03/22 20:46:36;;;;;;;36.10;16.10;;;;;;;13.24;60.15;98583.55;223647;181;137076;-72
2023/03/22 20:51:38;;;;;;;30.40;12.40;;;;;;;13.37;58.80;98580.98;223664;181;147056;-71
2023/03/22 20:56:40;;;;;;;30.60;11.80;;;;;;;13.44;58.58;98580.36;221695;181;141556;-71
2023/03/22 21:01:42;;;;;;;33.60;12.90;;;;;;;13.36;58.65;98578.30;223702;181;137240;-71
2023/03/22 21:06:47;;;;;;;35.30;12.30;;;;;;;13.28;58.95;98582.05;223653;181;147056;-70
2023/03/22 21:11:50;;;;;;;30.60;11.90;;;;;;;13.17;59.44;98580.40;223713;181;138942;-70
2023/03/22 21:16:52;;;;;;;50.30;12.40;;;;;;;13.06;59.83;98578.25;223711;182;137792;-75
2023/03/22 21:21:55;;;;;;;51.40;13.70;;;;;;;12.95;60.17;98576.23;223806;182;147007;-71
2023/03/22 21:26:57;;;;;;;55.00;15.00;;;;;;;12.85;60.48;98576.86;223636;182;139316;-71
2023/03/22 21:32:00;;;;;;;58.50;15.30;;;;;;;12.76;60.60;98580.04;223652;181;137643;-71
2023/03/22 21:37:03;;;;;;;55.30;15.70;;;;;;;12.72;60.76;98583.56;223706;181;147202;-71
2023/03/22 21:42:05;;;;;;;40.40;15.20;;;;;;;12.65;60.66;98589.44;223031;181;140903;-73
2023/03/22 21:47:08;;;;;;;50.50;15.70;;;;;;;12.56;60.88;98583.58;222746;182;137469;-73
2023/03/22 21:52:10;;;;;;;40.10;15.90;;;;;;;12.48;61.21;98587.27;223630;182;148011;-71
2023/03/22 21:57:13;;;;;;;47.90;16.70;;;;;;;12.40;61.50;98589.42;223600;182;139021;-72
2023/03/22 22:02:18;;;;;;;48.30;20.10;;;;;;;12.34;61.74;98587.76;223679;182;138138;-71
2023/03/22 22:07:21;;;;;;;53.00;18.90;;;;;;;12.27;61.75;98589.36;223010;182;147970;-73
2023/03/22 22:12:23;;;;;;;48.80;20.60;;;;;;;12.20;61.98;98590.09;223634;181;138849;-74
2023/03/22 22:23:51;;;;;;;48.40;22.80;;;;;;;12.01;62.37;98593.80;223793;181;147770;-73
2023/03/22 22:28:58;;;;;;;52.80;23.60;;;;;;;11.90;62.50;98597.69;223670;182;138724;-73
2023/03/22 22:34:00;;;;;;;50.80;23.00;;;;;;;11.79;62.69;98595.96;223662;181;137289;-73
2023/03/22 22:39:04;;;;;;;42.40;21.90;;;;;;;11.75;62.78;98593.63;223628;182;147696;-74
2023/03/22 22:44:08;;;;;;;47.20;19.30;;;;;;;11.75;62.66;98589.90;223702;182;153652;-73
2023/03/22 22:49:10;;;;;;;50.00;20.50;;;;;;;11.75;62.53;98587.18;223750;181;137252;-72
2023/03/22 22:54:18;;;;;;;32.50;15.40;;;;;;;11.73;62.48;98585.23;223654;181;147017;-72
2023/03/22 22:59:22;;;;;;;35.00;17.00;;;;;;;11.68;62.23;98577.41;223705;181;138885;-72
2023/03/22 23:04:25;;;;;;;35.30;15.10;;;;;;;11.61;62.13;98573.64;223774;181;137916;-72
2023/03/22 23:09:28;;;;;;;36.10;15.70;;;;;;;11.50;61.99;98570.73;223707;182;147533;-72
2023/03/22 23:14:30;;;;;;;31.40;16.80;;;;;;;11.44;61.91;98566.06;223553;182;139979;-72
2023/03/22 23:19:36;;;;;;;31.50;15.90;;;;;;;11.34;61.95;98569.95;223776;182;137209;-73
2023/03/22 23:24:42;;;;;;;27.70;13.70;;;;;;;11.25;62.23;98569.36;223606;181;147339;-72
2023/03/22 23:29:45;;;;;;;26.00;13.60;;;;;;;11.18;62.26;98571.13;223612;182;138964;-71
2023/03/22 23:34:50;;;;;;;21.00;12.90;;;;;;;11.09;62.32;98569.96;223662;182;137589;-72
2023/03/22 23:39:54;;;;;;;21.70;13.50;;;;;;;11.04;62.61;98572.29;223646;182;147076;-73
2023/03/22 23:44:56;;;;;;;24.00;13.00;;;;;;;11.00;62.64;98572.20;223479;182;138493;-72